createdAt,value
2018-07-27T00:01:35.509Z,22.44
2018-07-27T00:04:01.555Z,22.40
2018-07-27T00:06:27.620Z,22.35
2018-07-27T00:08:53.654Z,22.31
2018-07-27T00:11:19.708Z,22.25
2018-07-27T00:13:45.753Z,22.24
2018-07-27T00:16:11.918Z,22.19
2018-07-27T00:18:37.950Z,22.18
2018-07-27T00:21:04.169Z,22.15
2018-07-27T00:23:30.218Z,22.12
2018-07-27T00:25:57.385Z,22.08
2018-07-27T00:28:23.422Z,22.03
2018-07-27T00:30:49.477Z,21.93
2018-07-27T00:33:15.514Z,21.87
2018-07-27T00:35:41.565Z,21.84
2018-07-27T00:38:07.702Z,21.80
2018-07-27T00:40:33.734Z,21.77
2018-07-27T00:42:59.808Z,21.72
2018-07-27T00:45:25.850Z,21.68
2018-07-27T00:47:51.879Z,21.65
2018-07-27T00:50:17.942Z,21.63
2018-07-27T00:52:43.977Z,21.59
2018-07-27T00:55:10.002Z,21.56
2018-07-27T00:57:36.034Z,21.51
2018-07-27T01:00:02.072Z,21.48
2018-07-27T01:02:28.106Z,21.46
2018-07-27T01:04:54.141Z,21.44
2018-07-27T01:07:20.176Z,21.42
2018-07-27T01:09:46.219Z,21.39
2018-07-27T01:12:12.597Z,21.36
2018-07-27T01:14:38.721Z,21.34
2018-07-27T01:17:04.765Z,21.33
2018-07-27T01:19:30.795Z,21.28
2018-07-27T01:21:56.833Z,21.27
2018-07-27T01:24:22.914Z,21.21
2018-07-27T01:26:48.952Z,21.20
2018-07-27T01:29:14.986Z,21.19
2018-07-27T01:31:41.030Z,21.17
2018-07-27T01:34:07.109Z,21.14
2018-07-27T01:36:33.178Z,21.07
2018-07-27T01:38:59.214Z,21.02
2018-07-27T01:41:25.251Z,20.95
2018-07-27T01:43:51.286Z,20.91
2018-07-27T01:46:17.343Z,20.88
2018-07-27T01:48:43.375Z,20.88
2018-07-27T01:51:09.434Z,20.85
2018-07-27T01:53:35.473Z,20.79
2018-07-27T01:56:01.535Z,20.76
2018-07-27T01:58:27.570Z,20.70
2018-07-27T02:00:53.624Z,20.68
2018-07-27T02:03:19.969Z,20.62
2018-07-27T02:05:46.009Z,20.57
2018-07-27T02:08:12.046Z,20.52
2018-07-27T02:10:38.078Z,20.50
2018-07-27T02:13:04.161Z,20.46
2018-07-27T02:15:30.167Z,20.41
2018-07-27T02:17:56.281Z,20.35
2018-07-27T02:20:22.318Z,20.35
2018-07-27T02:22:48.358Z,20.33
2018-07-27T02:25:14.391Z,20.31
2018-07-27T02:27:40.431Z,20.25
2018-07-27T02:30:06.461Z,20.21
2018-07-27T02:32:32.503Z,20.16
2018-07-27T02:34:58.541Z,20.13
2018-07-27T02:37:24.664Z,20.08
2018-07-27T02:39:50.721Z,20.05
2018-07-27T02:42:16.757Z,20.01
2018-07-27T02:44:42.791Z,19.99
2018-07-27T02:47:08.822Z,19.94
2018-07-27T02:49:34.850Z,19.97
2018-07-27T02:52:00.882Z,19.94
2018-07-27T02:54:26.920Z,19.95
2018-07-27T02:56:52.962Z,19.93
2018-07-27T02:59:18.994Z,19.91
2018-07-27T03:01:45.032Z,19.91
2018-07-27T03:04:11.069Z,19.86
2018-07-27T03:06:37.098Z,19.82
2018-07-27T03:09:03.131Z,19.83
2018-07-27T03:11:29.166Z,19.80
2018-07-27T03:13:55.198Z,19.75
2018-07-27T03:16:21.229Z,19.72
2018-07-27T03:18:47.262Z,19.68
2018-07-27T03:21:13.326Z,19.67
2018-07-27T03:23:39.362Z,19.63
2018-07-27T03:26:05.394Z,19.58
2018-07-27T03:28:31.459Z,19.57
2018-07-27T03:30:57.497Z,19.54
2018-07-27T03:33:23.562Z,19.52
2018-07-27T03:35:49.628Z,19.47
2018-07-27T03:38:15.706Z,19.45
2018-07-27T03:40:41.741Z,19.41
2018-07-27T03:43:07.799Z,19.39
2018-07-27T03:45:33.829Z,19.38
2018-07-27T03:47:59.949Z,19.33
2018-07-27T03:50:26.026Z,19.31
2018-07-27T03:52:52.061Z,19.30
2018-07-27T03:55:18.096Z,19.28
2018-07-27T03:57:44.130Z,19.26
2018-07-27T04:00:10.182Z,19.23
2018-07-27T04:02:36.220Z,19.22
2018-07-27T04:05:02.275Z,19.26
2018-07-27T04:07:28.308Z,19.26
2018-07-27T04:09:54.370Z,19.27
2018-07-27T04:12:20.410Z,19.29
2018-07-27T04:14:46.465Z,19.29
2018-07-27T04:17:12.497Z,19.27
2018-07-27T04:19:38.554Z,19.21
2018-07-27T04:22:04.593Z,19.20
2018-07-27T04:24:30.628Z,19.21
2018-07-27T04:26:56.668Z,19.20
2018-07-27T04:29:22.703Z,19.20
2018-07-27T04:31:48.742Z,19.20
2018-07-27T04:34:14.769Z,19.21
2018-07-27T04:36:40.993Z,19.24
2018-07-27T04:39:07.033Z,19.23
2018-07-27T04:41:33.070Z,19.27
2018-07-27T04:43:59.142Z,19.28
2018-07-27T04:46:25.179Z,19.31
2018-07-27T04:48:51.209Z,19.34
2018-07-27T04:51:17.246Z,19.36
2018-07-27T04:53:43.290Z,19.40
2018-07-27T04:56:09.408Z,19.44
2018-07-27T04:58:35.438Z,19.50
2018-07-27T05:01:01.494Z,19.55
2018-07-27T05:03:27.526Z,19.63
2018-07-27T05:05:53.594Z,19.67
2018-07-27T05:08:19.626Z,19.75
2018-07-27T05:10:45.658Z,19.83
2018-07-27T05:13:11.692Z,19.90
2018-07-27T05:15:37.742Z,20.01
2018-07-27T05:18:03.787Z,20.07
2018-07-27T05:20:29.814Z,20.12
2018-07-27T05:22:55.846Z,20.23
2018-07-27T05:25:21.890Z,20.31
2018-07-27T05:27:47.930Z,20.36
2018-07-27T05:30:13.964Z,20.38
2018-07-27T05:32:40.007Z,20.43
2018-07-27T05:35:06.052Z,20.42
2018-07-27T05:37:32.082Z,20.48
2018-07-27T05:39:58.122Z,20.48
2018-07-27T05:42:24.163Z,20.49
2018-07-27T05:44:50.198Z,20.51
2018-07-27T05:47:16.279Z,20.55
2018-07-27T05:49:42.417Z,20.66
2018-07-27T05:52:08.710Z,20.78
2018-07-27T05:54:35.269Z,20.82
2018-07-27T05:57:01.351Z,20.86
2018-07-27T05:59:27.471Z,20.91
2018-07-27T06:01:53.901Z,20.97
2018-07-27T06:04:20.148Z,21.04
2018-07-27T06:06:46.197Z,21.11
2018-07-27T06:09:12.807Z,21.21
2018-07-27T06:11:39.081Z,21.28
2018-07-27T06:14:05.362Z,21.36
2018-07-27T06:16:32.003Z,21.47
2018-07-27T06:18:58.167Z,21.62
2018-07-27T06:24:09.523Z,21.88
2018-07-27T06:26:35.607Z,22.02
2018-07-27T06:29:02.066Z,22.13
2018-07-27T06:31:28.200Z,22.24
2018-07-27T06:33:54.706Z,22.38
2018-07-27T06:36:20.932Z,22.52
2018-07-27T06:38:47.007Z,22.69
2018-07-27T06:41:13.472Z,22.78
2018-07-27T06:43:39.590Z,22.95
2018-07-27T06:46:05.784Z,23.10
2018-07-27T06:48:31.878Z,23.22
2018-07-27T06:50:58.037Z,23.38
2018-07-27T06:53:24.299Z,23.56
2018-07-27T06:55:50.455Z,23.73
2018-07-27T06:58:16.533Z,23.90
2018-07-27T07:00:42.639Z,24.02
2018-07-27T07:03:08.722Z,24.19
2018-07-27T07:05:34.803Z,24.32
2018-07-27T07:08:01.865Z,24.43
2018-07-27T07:10:27.918Z,24.55
2018-07-27T07:12:54.079Z,24.69
2018-07-27T07:15:20.121Z,24.83
2018-07-27T07:17:48.322Z,24.99
2018-07-27T07:20:14.488Z,25.13
2018-07-27T07:22:40.635Z,25.27
2018-07-27T07:25:06.711Z,25.44
2018-07-27T07:27:32.810Z,25.57
2018-07-27T07:29:58.845Z,25.72
2018-07-27T07:32:24.910Z,25.87
2018-07-27T07:34:50.968Z,26.00
2018-07-27T07:37:17.026Z,26.14
2018-07-27T07:39:43.087Z,26.30
2018-07-27T07:42:09.404Z,26.44
2018-07-27T07:44:35.434Z,26.54
2018-07-27T07:47:01.490Z,26.67
2018-07-27T07:49:27.575Z,26.84
2018-07-27T07:51:53.607Z,26.99
2018-07-27T07:54:19.653Z,27.14
2018-07-27T07:56:45.691Z,27.25
2018-07-27T07:59:11.734Z,27.38
2018-07-27T08:01:37.828Z,27.50
2018-07-27T08:04:03.858Z,27.69
2018-07-27T08:06:29.945Z,27.82
2018-07-27T08:08:56.003Z,27.98
2018-07-27T08:11:22.062Z,28.13
2018-07-27T08:13:48.118Z,28.28
2018-07-27T08:16:14.162Z,28.39
2018-07-27T08:18:40.235Z,28.53
2018-07-27T08:21:06.283Z,28.63
2018-07-27T08:23:32.327Z,28.73
2018-07-27T08:25:58.439Z,28.83
2018-07-27T08:28:24.796Z,28.96
2018-07-27T08:30:50.863Z,29.03
2018-07-27T08:33:17.254Z,29.10
2018-07-27T08:35:43.312Z,29.19
2018-07-27T08:38:09.389Z,29.35
2018-07-27T08:40:35.730Z,29.46
2018-07-27T08:43:01.812Z,29.55
2018-07-27T08:45:27.852Z,29.64
2018-07-27T08:47:53.937Z,29.75
2018-07-27T08:50:20.010Z,29.86
2018-07-27T08:52:46.318Z,29.93
2018-07-27T08:55:12.444Z,30.03
2018-07-27T08:57:38.558Z,30.08
2018-07-27T09:00:04.596Z,30.13
2018-07-27T09:02:30.641Z,30.24
2018-07-27T09:04:56.724Z,30.33
2018-07-27T09:07:22.778Z,30.46
2018-07-27T09:09:48.818Z,30.53
2018-07-27T09:12:14.865Z,30.65
2018-07-27T09:14:40.960Z,30.78
2018-07-27T09:17:06.999Z,30.91
2018-07-27T09:19:33.058Z,31.03
2018-07-27T09:21:59.100Z,31.08
2018-07-27T09:24:25.273Z,31.17
2018-07-27T09:26:53.413Z,31.25
2018-07-27T09:29:19.465Z,31.30
2018-07-27T09:31:45.510Z,31.37
2018-07-27T09:34:11.715Z,31.44
2018-07-27T09:36:37.789Z,31.51
2018-07-27T09:39:03.926Z,31.57
2018-07-27T09:41:29.989Z,31.62
2018-07-27T09:43:56.038Z,31.69
2018-07-27T09:46:23.133Z,31.77
2018-07-27T09:48:49.179Z,31.78
2018-07-27T09:51:15.232Z,31.83
2018-07-27T09:53:43.619Z,31.92
2018-07-27T09:56:09.820Z,31.95
2018-07-27T09:58:35.922Z,32.02
2018-07-27T10:01:02.038Z,32.09
2018-07-27T10:03:28.101Z,32.17
2018-07-27T10:05:54.160Z,32.22
2018-07-27T10:08:20.262Z,32.27
2018-07-27T10:10:46.425Z,32.34
2018-07-27T10:13:12.569Z,32.40
2018-07-27T10:15:40.448Z,32.51
2018-07-27T10:18:06.506Z,32.57
2018-07-27T10:20:32.587Z,32.63
2018-07-27T10:22:58.890Z,32.73
2018-07-27T10:25:25.033Z,32.80
2018-07-27T10:27:51.080Z,32.84
2018-07-27T10:30:17.183Z,32.87
2018-07-27T10:32:43.246Z,32.96
2018-07-27T10:35:09.309Z,32.97
2018-07-27T10:37:35.390Z,33.02
2018-07-27T10:40:01.804Z,33.07
2018-07-27T10:42:27.905Z,33.16
2018-07-27T10:44:54.420Z,33.20
2018-07-27T10:47:20.453Z,33.26
2018-07-27T10:49:46.495Z,33.30
2018-07-27T10:52:12.559Z,33.34
2018-07-27T10:54:38.679Z,33.43
2018-07-27T10:57:04.838Z,33.49
2018-07-27T10:59:30.882Z,33.56
2018-07-27T11:01:56.939Z,33.58
2018-07-27T11:04:22.973Z,33.68
2018-07-27T11:06:49.055Z,33.75
2018-07-27T11:09:15.109Z,33.81
2018-07-27T11:11:41.166Z,33.84
2018-07-27T11:14:07.541Z,33.83
2018-07-27T11:16:33.602Z,33.83
2018-07-27T11:18:59.647Z,33.88
2018-07-27T11:21:25.692Z,33.87
2018-07-27T11:23:51.783Z,33.93
2018-07-27T11:26:17.828Z,34.03
2018-07-27T11:28:43.969Z,34.08
2018-07-27T11:31:10.068Z,34.12
2018-07-27T11:33:36.110Z,34.15
2018-07-27T11:36:02.184Z,34.22
2018-07-27T11:38:28.230Z,34.25
2018-07-27T11:40:54.288Z,34.35
2018-07-27T11:43:20.338Z,34.46
2018-07-27T11:45:46.435Z,34.60
2018-07-27T11:48:12.556Z,34.71
2018-07-27T11:50:38.597Z,34.94
2018-07-27T11:53:04.635Z,35.15
2018-07-27T11:55:30.760Z,35.50
2018-07-27T11:57:56.823Z,35.97
2018-07-27T12:00:23.010Z,36.43
2018-07-27T12:02:49.024Z,36.94
2018-07-27T12:05:15.045Z,37.51
2018-07-27T12:07:41.277Z,38.04
2018-07-27T12:10:07.293Z,38.70
2018-07-27T12:12:33.528Z,39.51
2018-07-27T12:14:59.728Z,40.27
2018-07-27T12:17:25.863Z,40.90
2018-07-27T12:19:51.881Z,41.79
2018-07-27T12:22:17.908Z,42.49
2018-07-27T12:24:44.112Z,43.63
2018-07-27T12:27:10.243Z,44.54
2018-07-27T12:29:36.635Z,45.44
2018-07-27T12:32:03.068Z,45.90
2018-07-27T12:34:29.287Z,46.42
2018-07-27T12:36:55.286Z,47.32
2018-07-27T12:39:21.383Z,47.66
2018-07-27T12:41:47.534Z,48.56
2018-07-27T12:44:13.579Z,48.93
2018-07-27T12:46:39.975Z,49.91
2018-07-27T12:49:05.996Z,49.84
2018-07-27T12:51:32.070Z,50.37
2018-07-27T12:53:58.137Z,50.83
2018-07-27T12:56:24.233Z,51.68
2018-07-27T12:58:50.643Z,52.38
2018-07-27T13:01:16.695Z,52.85
2018-07-27T13:03:42.779Z,53.11
2018-07-27T13:06:08.810Z,53.76
2018-07-27T13:08:34.844Z,53.33
2018-07-27T13:11:00.867Z,53.60
2018-07-27T13:13:26.923Z,54.21
2018-07-27T13:15:57.094Z,54.11
2018-07-27T13:18:23.125Z,54.68
2018-07-27T13:20:49.139Z,55.32
2018-07-27T13:23:15.189Z,55.70
2018-07-27T13:25:41.273Z,55.56
2018-07-27T13:28:07.296Z,55.71
2018-07-27T13:30:33.337Z,55.64
2018-07-27T13:35:25.456Z,56.16
2018-07-27T13:37:51.566Z,55.89
2018-07-27T13:40:17.583Z,56.33
2018-07-27T13:42:43.619Z,56.43
2018-07-27T13:45:09.996Z,56.53
2018-07-27T13:47:36.034Z,56.08
2018-07-27T13:50:02.051Z,56.47
2018-07-27T13:52:28.374Z,56.68
2018-07-27T13:54:54.409Z,56.13
2018-07-27T13:57:20.424Z,56.42
2018-07-27T13:59:46.511Z,56.73
2018-07-27T14:02:12.564Z,56.90
2018-07-27T14:04:38.578Z,57.00
2018-07-27T14:07:04.581Z,57.38
2018-07-27T14:09:30.709Z,57.69
2018-07-27T14:11:56.752Z,57.88
2018-07-27T14:14:22.864Z,58.05
2018-07-27T14:16:48.870Z,57.44
2018-07-27T14:19:14.908Z,57.69
2018-07-27T14:21:41.125Z,58.11
2018-07-27T14:24:07.133Z,58.37
2018-07-27T14:26:33.172Z,58.43
2018-07-27T14:28:59.192Z,58.32
2018-07-27T14:31:25.222Z,58.46
2018-07-27T14:33:51.269Z,58.19
2018-07-27T14:36:17.325Z,57.93
2018-07-27T14:38:43.747Z,58.18
2018-07-27T14:41:09.830Z,57.36
2018-07-27T14:43:35.866Z,58.02
2018-07-27T14:46:02.940Z,58.41
2018-07-27T14:48:29.024Z,58.41
2018-07-27T14:50:55.154Z,58.40
2018-07-27T14:53:21.206Z,58.39
2018-07-27T14:55:47.246Z,58.86
2018-07-27T14:58:13.298Z,58.80
2018-07-27T15:00:39.323Z,59.11
2018-07-27T15:03:05.375Z,59.36
2018-07-27T15:05:31.396Z,58.63
2018-07-27T15:07:57.838Z,59.19
2018-07-27T15:10:23.963Z,58.99
2018-07-27T15:12:50.047Z,59.09
2018-07-27T15:15:16.123Z,58.83
2018-07-27T15:17:42.211Z,58.77
2018-07-27T15:20:08.754Z,58.95
2018-07-27T15:22:34.784Z,59.01
2018-07-27T15:25:00.818Z,59.02
2018-07-27T15:27:26.839Z,58.99
2018-07-27T15:29:52.828Z,58.78
2018-07-27T15:32:18.848Z,59.08
2018-07-27T15:34:44.868Z,58.63
2018-07-27T15:37:10.994Z,58.86
2018-07-27T15:39:37.036Z,58.76
2018-07-27T15:42:03.065Z,58.57
2018-07-27T15:44:29.112Z,58.42
2018-07-27T15:46:55.111Z,58.00
2018-07-27T15:49:21.171Z,57.76
2018-07-27T15:51:47.214Z,57.74
2018-07-27T15:54:13.229Z,57.30
2018-07-27T15:56:39.279Z,57.50
2018-07-27T15:59:05.305Z,57.59
2018-07-27T16:01:31.377Z,57.06
2018-07-27T16:03:57.426Z,57.32
2018-07-27T16:06:23.449Z,57.41
2018-07-27T16:08:49.838Z,57.60
2018-07-27T16:11:15.891Z,57.56
2018-07-27T16:13:41.909Z,57.93
2018-07-27T16:16:07.963Z,57.99
2018-07-27T16:18:34.031Z,57.55
2018-07-27T16:21:00.379Z,57.42
2018-07-27T16:23:26.412Z,57.17
2018-07-27T16:28:24.711Z,56.56
2018-07-27T16:30:50.763Z,56.19
2018-07-27T16:33:16.932Z,55.54
2018-07-27T16:35:42.963Z,53.98
2018-07-27T16:38:09.309Z,52.49
2018-07-27T16:40:35.337Z,51.97
2018-07-27T16:45:12.417Z,51.55
2018-07-27T16:47:38.849Z,51.65
2018-07-27T16:50:05.283Z,51.54
2018-07-27T16:52:31.328Z,51.13
2018-07-27T16:54:57.397Z,50.18
2018-07-27T16:57:23.400Z,49.83
2018-07-27T16:59:49.502Z,49.85
2018-07-27T17:02:15.502Z,50.22
2018-07-27T17:04:41.566Z,50.58
2018-07-27T17:07:07.599Z,50.64
2018-07-27T17:09:33.699Z,50.19
2018-07-27T17:11:59.751Z,49.27
2018-07-27T17:14:25.815Z,48.53
2018-07-27T17:16:52.161Z,47.73
2018-07-27T17:19:18.278Z,47.48
2018-07-27T17:21:44.368Z,47.42
2018-07-27T17:24:10.434Z,47.53
2018-07-27T17:26:36.467Z,47.79
2018-07-27T17:29:02.710Z,48.00
2018-07-27T17:31:28.754Z,47.62
2018-07-27T17:33:54.787Z,46.97
2018-07-27T17:36:20.817Z,46.27
2018-07-27T17:38:47.142Z,45.82
2018-07-27T17:41:13.488Z,45.18
2018-07-27T17:43:39.535Z,44.77
2018-07-27T17:46:05.614Z,44.99
2018-07-27T17:48:31.636Z,44.98
2018-07-27T17:50:58.008Z,45.12
2018-07-27T17:53:24.059Z,45.60
2018-07-27T17:55:50.448Z,45.64
2018-07-27T17:58:16.552Z,45.77
2018-07-27T18:00:42.885Z,45.45
2018-07-27T18:03:08.899Z,45.03
2018-07-27T18:05:34.952Z,44.57
2018-07-27T18:08:01.099Z,44.30
2018-07-27T18:10:27.382Z,43.95
2018-07-27T18:12:53.424Z,43.57
2018-07-27T18:15:19.469Z,43.23
2018-07-27T18:17:45.934Z,42.86
2018-07-27T18:20:11.947Z,42.36
2018-07-27T18:22:37.945Z,41.37
2018-07-27T18:25:04.011Z,40.78
2018-07-27T18:27:30.039Z,40.34
2018-07-27T18:29:56.048Z,39.97
2018-07-27T18:32:22.086Z,39.51
2018-07-27T18:34:48.125Z,39.26
2018-07-27T18:37:14.155Z,39.04
2018-07-27T18:39:40.181Z,38.45
2018-07-27T18:42:06.200Z,37.96
2018-07-27T18:44:32.206Z,37.27
2018-07-27T18:46:58.217Z,36.62
2018-07-27T18:49:24.252Z,35.77
2018-07-27T18:51:50.580Z,35.12
2018-07-27T18:54:16.929Z,34.53
2018-07-27T18:56:42.970Z,33.92
2018-07-27T18:59:09.013Z,33.52
2018-07-27T19:01:35.026Z,33.00
2018-07-27T19:04:01.025Z,32.56
2018-07-27T19:06:27.058Z,32.18
2018-07-27T19:08:53.060Z,31.85
2018-07-27T19:11:19.080Z,31.52
2018-07-27T19:13:45.122Z,31.22
2018-07-27T19:16:11.139Z,30.95
2018-07-27T19:18:37.163Z,30.69
2018-07-27T19:21:03.201Z,30.42
2018-07-27T19:23:29.270Z,30.17
2018-07-27T19:25:55.268Z,29.97
2018-07-27T19:28:21.340Z,29.75
2018-07-27T19:30:47.390Z,29.52
2018-07-27T19:33:13.409Z,29.37
2018-07-27T19:35:39.397Z,29.15
2018-07-27T19:38:05.399Z,28.94
2018-07-27T19:40:31.419Z,28.79
2018-07-27T19:42:57.431Z,28.64
2018-07-27T19:45:23.471Z,28.44
2018-07-27T19:47:49.497Z,28.33
2018-07-27T19:50:15.491Z,28.21
2018-07-27T19:52:41.515Z,28.08
2018-07-27T19:55:07.559Z,27.90
2018-07-27T19:57:33.816Z,27.83
2018-07-27T20:00:00.149Z,27.71
2018-07-27T20:02:26.174Z,27.73
2018-07-27T20:04:52.223Z,27.71
2018-07-27T20:07:18.244Z,27.70
2018-07-27T20:09:44.282Z,27.63
2018-07-27T20:12:10.300Z,27.56
2018-07-27T20:14:36.338Z,27.50
2018-07-27T20:17:02.395Z,27.45
2018-07-27T20:19:28.388Z,27.37
2018-07-27T20:21:54.395Z,27.29
2018-07-27T20:24:20.445Z,27.25
2018-07-27T20:26:46.474Z,27.22
2018-07-27T20:29:12.575Z,27.16
2018-07-27T20:31:38.579Z,27.11
2018-07-27T20:34:04.610Z,27.05
2018-07-27T20:36:30.649Z,27.02
2018-07-27T20:38:56.668Z,26.95
2018-07-27T20:41:22.814Z,26.88
2018-07-27T20:43:48.848Z,26.82
2018-07-27T20:46:14.954Z,26.77
2018-07-27T20:48:41.313Z,26.74
2018-07-27T20:51:07.279Z,26.66
2018-07-27T20:53:33.278Z,26.58
2018-07-27T20:55:59.289Z,26.54
2018-07-27T20:58:25.291Z,26.45
2018-07-27T21:00:51.284Z,26.37
2018-07-27T21:03:17.288Z,26.26
2018-07-27T21:05:43.314Z,26.16
2018-07-27T21:08:09.354Z,26.03
2018-07-27T21:10:35.348Z,25.90
2018-07-27T21:13:01.370Z,25.81
2018-07-27T21:15:27.383Z,25.74
2018-07-27T21:17:53.383Z,25.68
2018-07-27T21:20:19.413Z,25.59
2018-07-27T21:22:45.408Z,25.49
2018-07-27T21:25:11.395Z,25.40
2018-07-27T21:27:37.415Z,25.29
2018-07-27T21:30:03.447Z,25.19
2018-07-27T21:32:29.439Z,25.10
2018-07-27T21:34:55.451Z,25.04
2018-07-27T21:37:21.441Z,24.96
2018-07-27T21:39:47.474Z,24.87
2018-07-27T21:42:13.511Z,24.82
2018-07-27T21:44:39.636Z,24.77
2018-07-27T21:47:05.681Z,24.70
2018-07-27T21:49:31.716Z,24.66
2018-07-27T21:51:57.750Z,24.61
2018-07-27T21:54:23.816Z,24.54
2018-07-27T21:56:50.882Z,24.49
2018-07-27T21:59:16.876Z,24.45
2018-07-27T22:01:42.917Z,24.39
2018-07-27T22:04:08.931Z,24.28
2018-07-27T22:06:35.126Z,24.22
2018-07-27T22:09:01.148Z,24.15
2018-07-27T22:11:27.167Z,24.12
2018-07-27T22:13:53.152Z,24.08
2018-07-27T22:16:19.150Z,24.05
2018-07-27T22:18:45.145Z,24.02
2018-07-27T22:21:11.159Z,23.97
2018-07-27T22:23:37.223Z,23.95
2018-07-27T22:26:03.211Z,23.89
2018-07-27T22:28:29.243Z,23.83
2018-07-27T22:30:55.267Z,23.81
2018-07-27T22:33:21.284Z,23.76
2018-07-27T22:35:47.354Z,23.64
2018-07-27T22:38:13.372Z,23.60
2018-07-27T22:40:39.387Z,23.53
2018-07-27T22:43:05.402Z,23.49
2018-07-27T22:45:31.800Z,23.44
2018-07-27T22:47:58.128Z,23.38
2018-07-27T22:50:24.145Z,23.35
2018-07-27T22:52:50.157Z,23.31
2018-07-27T22:55:16.163Z,23.27
2018-07-27T22:57:42.189Z,23.25
2018-07-27T23:00:08.245Z,23.22
2018-07-27T23:02:34.264Z,23.21
2018-07-27T23:05:00.278Z,23.18
2018-07-27T23:07:26.296Z,23.17
2018-07-27T23:09:52.336Z,23.12
2018-07-27T23:12:18.356Z,23.09
2018-07-27T23:14:44.388Z,23.07
2018-07-27T23:17:10.444Z,23.02
2018-07-27T23:19:36.463Z,22.96
2018-07-27T23:22:02.494Z,22.92
2018-07-27T23:24:28.577Z,22.90
2018-07-27T23:26:54.616Z,22.86
2018-07-27T23:29:20.901Z,22.84
2018-07-27T23:31:46.915Z,22.80
2018-07-27T23:34:12.909Z,22.79
2018-07-27T23:36:38.954Z,22.77
2018-07-27T23:39:04.991Z,22.76
2018-07-27T23:41:31.003Z,22.74
2018-07-27T23:43:57.014Z,22.75
2018-07-27T23:46:23.007Z,22.71
2018-07-27T23:48:49.322Z,22.71
2018-07-27T23:51:15.344Z,22.70
2018-07-27T23:53:41.367Z,22.67
2018-07-27T23:56:09.741Z,22.61
2018-07-27T23:58:35.760Z,22.57
